sensor_id;sensor_type;location;lat;lon;timestamp;P1;durP1;ratioP1;P2;durP2;ratioP2
38379;SDS011;38377;47.418;18.882;2022-10-16T00:00:30;10.50;;;7.45;;
38379;SDS011;38377;47.418;18.882;2022-10-16T00:02:56;12.00;;;7.78;;
38379;SDS011;38377;47.418;18.882;2022-10-16T00:05:22;13.25;;;8.00;;
38379;SDS011;38377;47.418;18.882;2022-10-16T00:07:48;9.13;;;7.18;;
38379;SDS011;38377;47.418;18.882;2022-10-16T00:10:14;9.55;;;7.32;;
38379;SDS011;38377;47.418;18.882;2022-10-16T00:12:39;13.45;;;7.50;;
38379;SDS011;38377;47.418;18.882;2022-10-16T00:15:05;10.88;;;7.32;;
38379;SDS011;38377;47.418;18.882;2022-10-16T00:17:31;10.18;;;7.53;;
38379;SDS011;38377;47.418;18.882;2022-10-16T00:19:57;10.10;;;7.75;;
38379;SDS011;38377;47.418;18.882;2022-10-16T00:22:23;9.65;;;7.00;;
38379;SDS011;38377;47.418;18.882;2022-10-16T00:24:49;8.82;;;6.93;;
38379;SDS011;38377;47.418;18.882;2022-10-16T00:27:14;13.48;;;8.25;;
38379;SDS011;38377;47.418;18.882;2022-10-16T00:29:41;8.73;;;6.93;;
38379;SDS011;38377;47.418;18.882;2022-10-16T00:32:07;10.23;;;7.25;;
38379;SDS011;38377;47.418;18.882;2022-10-16T00:34:34;10.43;;;7.53;;
38379;SDS011;38377;47.418;18.882;2022-10-16T00:37:00;9.05;;;7.43;;
38379;SDS011;38377;47.418;18.882;2022-10-16T00:39:26;9.50;;;7.22;;
38379;SDS011;38377;47.418;18.882;2022-10-16T00:41:51;9.68;;;7.10;;
38379;SDS011;38377;47.418;18.882;2022-10-16T00:47:11;11.65;;;7.45;;
38379;SDS011;38377;47.418;18.882;2022-10-16T00:49:42;12.27;;;7.40;;
38379;SDS011;38377;47.418;18.882;2022-10-16T00:52:08;9.80;;;8.07;;
38379;SDS011;38377;47.418;18.882;2022-10-16T00:54:35;9.80;;;7.25;;
38379;SDS011;38377;47.418;18.882;2022-10-16T00:57:02;10.00;;;7.07;;
38379;SDS011;38377;47.418;18.882;2022-10-16T00:59:38;11.05;;;7.28;;
38379;SDS011;38377;47.418;18.882;2022-10-16T01:02:05;12.07;;;7.85;;
38379;SDS011;38377;47.418;18.882;2022-10-16T01:04:52;10.07;;;7.35;;
38379;SDS011;38377;47.418;18.882;2022-10-16T01:10:02;10.40;;;7.45;;
38379;SDS011;38377;47.418;18.882;2022-10-16T01:18:28;11.27;;;7.50;;
38379;SDS011;38377;47.418;18.882;2022-10-16T01:21:01;11.25;;;7.57;;
38379;SDS011;38377;47.418;18.882;2022-10-16T01:23:44;11.07;;;7.97;;
38379;SDS011;38377;47.418;18.882;2022-10-16T01:31:48;10.48;;;8.07;;
38379;SDS011;38377;47.418;18.882;2022-10-16T01:34:20;13.02;;;7.78;;
38379;SDS011;38377;47.418;18.882;2022-10-16T01:37:04;19.05;;;7.80;;
38379;SDS011;38377;47.418;18.882;2022-10-16T01:39:37;12.98;;;7.47;;
38379;SDS011;38377;47.418;18.882;2022-10-16T01:42:11;8.82;;;7.03;;
38379;SDS011;38377;47.418;18.882;2022-10-16T01:44:41;9.85;;;7.75;;
38379;SDS011;38377;47.418;18.882;2022-10-16T01:47:08;8.60;;;6.82;;
38379;SDS011;38377;47.418;18.882;2022-10-16T01:49:38;9.82;;;7.05;;
38379;SDS011;38377;47.418;18.882;2022-10-16T01:52:06;9.50;;;6.93;;
38379;SDS011;38377;47.418;18.882;2022-10-16T01:54:36;11.15;;;7.65;;
38379;SDS011;38377;47.418;18.882;2022-10-16T01:57:05;11.20;;;6.72;;
38379;SDS011;38377;47.418;18.882;2022-10-16T01:59:35;9.90;;;6.85;;
38379;SDS011;38377;47.418;18.882;2022-10-16T02:02:08;12.23;;;7.18;;
38379;SDS011;38377;47.418;18.882;2022-10-16T02:04:37;7.88;;;6.60;;
38379;SDS011;38377;47.418;18.882;2022-10-16T02:07:08;7.95;;;5.90;;
38379;SDS011;38377;47.418;18.882;2022-10-16T02:09:34;10.27;;;7.00;;
38379;SDS011;38377;47.418;18.882;2022-10-16T02:12:03;10.00;;;6.80;;
38379;SDS011;38377;47.418;18.882;2022-10-16T02:14:35;11.95;;;6.72;;
38379;SDS011;38377;47.418;18.882;2022-10-16T02:17:11;8.68;;;6.38;;
38379;SDS011;38377;47.418;18.882;2022-10-16T02:19:41;9.90;;;6.75;;
38379;SDS011;38377;47.418;18.882;2022-10-16T02:22:10;9.27;;;7.22;;
38379;SDS011;38377;47.418;18.882;2022-10-16T02:25:10;11.52;;;7.10;;
38379;SDS011;38377;47.418;18.882;2022-10-16T02:30:34;9.38;;;7.07;;
38379;SDS011;38377;47.418;18.882;2022-10-16T02:33:05;10.02;;;6.72;;
38379;SDS011;38377;47.418;18.882;2022-10-16T02:35:33;11.23;;;7.35;;
38379;SDS011;38377;47.418;18.882;2022-10-16T02:38:01;12.65;;;7.13;;
38379;SDS011;38377;47.418;18.882;2022-10-16T02:40:28;9.07;;;7.13;;
38379;SDS011;38377;47.418;18.882;2022-10-16T02:42:54;8.50;;;7.22;;
38379;SDS011;38377;47.418;18.882;2022-10-16T02:45:21;16.75;;;7.55;;
38379;SDS011;38377;47.418;18.882;2022-10-16T02:47:47;13.20;;;7.38;;
38379;SDS011;38377;47.418;18.882;2022-10-16T02:50:13;10.23;;;7.07;;
38379;SDS011;38377;47.418;18.882;2022-10-16T02:52:42;10.10;;;7.47;;
38379;SDS011;38377;47.418;18.882;2022-10-16T02:55:07;14.43;;;7.68;;
38379;SDS011;38377;47.418;18.882;2022-10-16T02:57:33;11.25;;;7.80;;
38379;SDS011;38377;47.418;18.882;2022-10-16T03:00:02;8.63;;;7.13;;
38379;SDS011;38377;47.418;18.882;2022-10-16T03:02:29;10.73;;;6.95;;
38379;SDS011;38377;47.418;18.882;2022-10-16T03:04:54;7.70;;;6.88;;
38379;SDS011;38377;47.418;18.882;2022-10-16T03:07:22;12.60;;;7.50;;
38379;SDS011;38377;47.418;18.882;2022-10-16T03:09:48;9.65;;;7.22;;
38379;SDS011;38377;47.418;18.882;2022-10-16T03:12:13;10.15;;;7.25;;
38379;SDS011;38377;47.418;18.882;2022-10-16T03:14:39;12.50;;;8.27;;
38379;SDS011;38377;47.418;18.882;2022-10-16T03:17:05;12.15;;;8.25;;
38379;SDS011;38377;47.418;18.882;2022-10-16T03:19:31;11.88;;;8.02;;
38379;SDS011;38377;47.418;18.882;2022-10-16T03:21:56;10.48;;;7.18;;
38379;SDS011;38377;47.418;18.882;2022-10-16T03:24:22;11.43;;;7.88;;
38379;SDS011;38377;47.418;18.882;2022-10-16T03:26:48;10.88;;;8.65;;
38379;SDS011;38377;47.418;18.882;2022-10-16T03:29:14;12.95;;;8.77;;
38379;SDS011;38377;47.418;18.882;2022-10-16T03:31:40;9.73;;;7.40;;
38379;SDS011;38377;47.418;18.882;2022-10-16T03:34:06;13.95;;;8.38;;
38379;SDS011;38377;47.418;18.882;2022-10-16T03:36:32;11.43;;;9.13;;
38379;SDS011;38377;47.418;18.882;2022-10-16T03:38:58;13.25;;;9.50;;
38379;SDS011;38377;47.418;18.882;2022-10-16T03:41:23;16.67;;;9.50;;
38379;SDS011;38377;47.418;18.882;2022-10-16T03:43:49;14.52;;;8.82;;
38379;SDS011;38377;47.418;18.882;2022-10-16T03:46:15;11.45;;;9.02;;
38379;SDS011;38377;47.418;18.882;2022-10-16T03:48:40;13.05;;;9.75;;
38379;SDS011;38377;47.418;18.882;2022-10-16T03:51:06;16.92;;;8.43;;
38379;SDS011;38377;47.418;18.882;2022-10-16T03:53:32;13.55;;;9.05;;
38379;SDS011;38377;47.418;18.882;2022-10-16T03:55:57;13.55;;;8.98;;
38379;SDS011;38377;47.418;18.882;2022-10-16T03:58:23;12.75;;;9.35;;
38379;SDS011;38377;47.418;18.882;2022-10-16T04:00:49;11.95;;;8.90;;
38379;SDS011;38377;47.418;18.882;2022-10-16T04:03:15;13.57;;;9.18;;
38379;SDS011;38377;47.418;18.882;2022-10-16T04:05:40;12.98;;;8.90;;
38379;SDS011;38377;47.418;18.882;2022-10-16T04:08:06;14.80;;;9.57;;
38379;SDS011;38377;47.418;18.882;2022-10-16T04:10:32;13.18;;;9.00;;
38379;SDS011;38377;47.418;18.882;2022-10-16T04:12:58;12.02;;;8.95;;
38379;SDS011;38377;47.418;18.882;2022-10-16T04:15:24;12.38;;;8.98;;
38379;SDS011;38377;47.418;18.882;2022-10-16T04:17:52;16.10;;;9.77;;
38379;SDS011;38377;47.418;18.882;2022-10-16T04:20:18;12.57;;;9.40;;
38379;SDS011;38377;47.418;18.882;2022-10-16T04:22:44;13.15;;;9.48;;
38379;SDS011;38377;47.418;18.882;2022-10-16T04:25:10;12.82;;;9.25;;
38379;SDS011;38377;47.418;18.882;2022-10-16T04:27:36;13.18;;;10.20;;
38379;SDS011;38377;47.418;18.882;2022-10-16T04:30:02;13.85;;;9.38;;
38379;SDS011;38377;47.418;18.882;2022-10-16T04:32:29;10.07;;;8.93;;
38379;SDS011;38377;47.418;18.882;2022-10-16T04:34:55;12.57;;;9.55;;
38379;SDS011;38377;47.418;18.882;2022-10-16T04:37:27;12.18;;;9.30;;
38379;SDS011;38377;47.418;18.882;2022-10-16T04:39:53;12.68;;;8.85;;
38379;SDS011;38377;47.418;18.882;2022-10-16T04:42:19;13.27;;;9.55;;
38379;SDS011;38377;47.418;18.882;2022-10-16T04:44:45;15.82;;;10.10;;
38379;SDS011;38377;47.418;18.882;2022-10-16T04:47:11;13.38;;;9.77;;
38379;SDS011;38377;47.418;18.882;2022-10-16T04:49:37;14.75;;;9.55;;
38379;SDS011;38377;47.418;18.882;2022-10-16T04:52:03;16.00;;;9.32;;
38379;SDS011;38377;47.418;18.882;2022-10-16T04:54:29;16.52;;;10.05;;
38379;SDS011;38377;47.418;18.882;2022-10-16T04:56:55;12.38;;;9.95;;
38379;SDS011;38377;47.418;18.882;2022-10-16T04:59:21;13.88;;;9.13;;
38379;SDS011;38377;47.418;18.882;2022-10-16T05:01:47;14.95;;;10.10;;
38379;SDS011;38377;47.418;18.882;2022-10-16T05:04:13;15.48;;;10.48;;
38379;SDS011;38377;47.418;18.882;2022-10-16T05:06:40;12.13;;;9.07;;
38379;SDS011;38377;47.418;18.882;2022-10-16T05:09:06;12.38;;;9.40;;
38379;SDS011;38377;47.418;18.882;2022-10-16T05:11:33;13.77;;;10.18;;
38379;SDS011;38377;47.418;18.882;2022-10-16T05:13:58;16.25;;;9.90;;
38379;SDS011;38377;47.418;18.882;2022-10-16T05:16:24;15.63;;;9.15;;
38379;SDS011;38377;47.418;18.882;2022-10-16T05:18:53;13.30;;;9.63;;
38379;SDS011;38377;47.418;18.882;2022-10-16T05:21:19;12.63;;;9.25;;
38379;SDS011;38377;47.418;18.882;2022-10-16T05:23:45;13.70;;;10.00;;
38379;SDS011;38377;47.418;18.882;2022-10-16T05:26:11;13.98;;;9.90;;
38379;SDS011;38377;47.418;18.882;2022-10-16T05:28:36;15.63;;;9.88;;
38379;SDS011;38377;47.418;18.882;2022-10-16T05:31:05;14.13;;;9.85;;
38379;SDS011;38377;47.418;18.882;2022-10-16T05:33:32;14.75;;;10.25;;
38379;SDS011;38377;47.418;18.882;2022-10-16T05:36:16;12.60;;;9.40;;
38379;SDS011;38377;47.418;18.882;2022-10-16T05:38:43;12.48;;;9.10;;
38379;SDS011;38377;47.418;18.882;2022-10-16T05:41:08;12.95;;;9.85;;
38379;SDS011;38377;47.418;18.882;2022-10-16T05:43:34;15.20;;;10.05;;
38379;SDS011;38377;47.418;18.882;2022-10-16T05:46:01;13.30;;;10.55;;
38379;SDS011;38377;47.418;18.882;2022-10-16T05:48:30;12.98;;;9.82;;
38379;SDS011;38377;47.418;18.882;2022-10-16T05:50:57;14.55;;;9.18;;
38379;SDS011;38377;47.418;18.882;2022-10-16T05:53:23;12.90;;;8.85;;
38379;SDS011;38377;47.418;18.882;2022-10-16T05:55:53;13.27;;;8.25;;
38379;SDS011;38377;47.418;18.882;2022-10-16T05:58:20;12.05;;;7.85;;
38379;SDS011;38377;47.418;18.882;2022-10-16T06:00:53;13.95;;;8.57;;
38379;SDS011;38377;47.418;18.882;2022-10-16T06:03:23;10.15;;;7.97;;
38379;SDS011;38377;47.418;18.882;2022-10-16T06:05:49;10.77;;;7.53;;
38379;SDS011;38377;47.418;18.882;2022-10-16T06:08:15;12.55;;;7.53;;
38379;SDS011;38377;47.418;18.882;2022-10-16T06:10:41;8.65;;;6.72;;
38379;SDS011;38377;47.418;18.882;2022-10-16T06:13:07;12.10;;;7.68;;
38379;SDS011;38377;47.418;18.882;2022-10-16T06:15:32;12.23;;;7.97;;
38379;SDS011;38377;47.418;18.882;2022-10-16T06:17:58;11.63;;;8.27;;
38379;SDS011;38377;47.418;18.882;2022-10-16T06:20:23;10.80;;;7.30;;
38379;SDS011;38377;47.418;18.882;2022-10-16T06:22:52;9.50;;;7.50;;
38379;SDS011;38377;47.418;18.882;2022-10-16T06:25:17;9.30;;;7.45;;
38379;SDS011;38377;47.418;18.882;2022-10-16T06:27:43;10.25;;;7.90;;
38379;SDS011;38377;47.418;18.882;2022-10-16T06:30:09;10.18;;;7.82;;
38379;SDS011;38377;47.418;18.882;2022-10-16T06:32:35;14.27;;;8.18;;
38379;SDS011;38377;47.418;18.882;2022-10-16T06:35:00;11.45;;;8.35;;
38379;SDS011;38377;47.418;18.882;2022-10-16T06:37:26;13.70;;;8.32;;
38379;SDS011;38377;47.418;18.882;2022-10-16T06:39:52;12.18;;;7.07;;
38379;SDS011;38377;47.418;18.882;2022-10-16T06:42:18;12.35;;;7.72;;
38379;SDS011;38377;47.418;18.882;2022-10-16T06:44:44;9.35;;;8.02;;
38379;SDS011;38377;47.418;18.882;2022-10-16T06:47:10;11.00;;;8.05;;
38379;SDS011;38377;47.418;18.882;2022-10-16T06:49:35;13.38;;;8.30;;
38379;SDS011;38377;47.418;18.882;2022-10-16T06:52:01;13.70;;;8.73;;
38379;SDS011;38377;47.418;18.882;2022-10-16T06:54:27;10.13;;;8.40;;
38379;SDS011;38377;47.418;18.882;2022-10-16T06:56:53;12.00;;;8.20;;
38379;SDS011;38377;47.418;18.882;2022-10-16T06:59:20;11.55;;;7.75;;
38379;SDS011;38377;47.418;18.882;2022-10-16T07:01:46;9.55;;;8.07;;
38379;SDS011;38377;47.418;18.882;2022-10-16T07:04:11;10.55;;;7.63;;
38379;SDS011;38377;47.418;18.882;2022-10-16T07:06:37;12.10;;;7.47;;
38379;SDS011;38377;47.418;18.882;2022-10-16T07:09:05;10.93;;;7.72;;
38379;SDS011;38377;47.418;18.882;2022-10-16T07:11:32;10.85;;;8.68;;
38379;SDS011;38377;47.418;18.882;2022-10-16T07:13:58;10.07;;;8.20;;
38379;SDS011;38377;47.418;18.882;2022-10-16T07:16:25;13.10;;;9.30;;
38379;SDS011;38377;47.418;18.882;2022-10-16T07:18:56;10.93;;;8.27;;
38379;SDS011;38377;47.418;18.882;2022-10-16T07:21:30;12.05;;;8.23;;
38379;SDS011;38377;47.418;18.882;2022-10-16T07:24:00;10.65;;;8.02;;
38379;SDS011;38377;47.418;18.882;2022-10-16T07:26:26;11.93;;;8.60;;
38379;SDS011;38377;47.418;18.882;2022-10-16T07:28:55;11.82;;;8.70;;
38379;SDS011;38377;47.418;18.882;2022-10-16T07:31:22;19.02;;;9.00;;
38379;SDS011;38377;47.418;18.882;2022-10-16T07:33:48;10.70;;;8.00;;
38379;SDS011;38377;47.418;18.882;2022-10-16T07:36:15;12.60;;;8.82;;
38379;SDS011;38377;47.418;18.882;2022-10-16T07:38:42;14.73;;;8.50;;
38379;SDS011;38377;47.418;18.882;2022-10-16T07:41:09;10.13;;;7.97;;
38379;SDS011;38377;47.418;18.882;2022-10-16T07:43:36;11.43;;;8.50;;
38379;SDS011;38377;47.418;18.882;2022-10-16T07:46:02;14.82;;;7.90;;
38379;SDS011;38377;47.418;18.882;2022-10-16T07:48:29;11.68;;;8.10;;
38379;SDS011;38377;47.418;18.882;2022-10-16T07:50:59;12.80;;;8.18;;
38379;SDS011;38377;47.418;18.882;2022-10-16T07:53:30;9.63;;;7.13;;
38379;SDS011;38377;47.418;18.882;2022-10-16T07:55:57;10.80;;;7.78;;
38379;SDS011;38377;47.418;18.882;2022-10-16T07:58:26;11.65;;;7.97;;
38379;SDS011;38377;47.418;18.882;2022-10-16T08:00:55;12.00;;;7.43;;
38379;SDS011;38377;47.418;18.882;2022-10-16T08:03:21;9.77;;;8.00;;
38379;SDS011;38377;47.418;18.882;2022-10-16T08:05:47;16.17;;;8.18;;
38379;SDS011;38377;47.418;18.882;2022-10-16T08:08:13;14.00;;;9.02;;
38379;SDS011;38377;47.418;18.882;2022-10-16T08:10:40;12.63;;;8.18;;
38379;SDS011;38377;47.418;18.882;2022-10-16T08:13:06;12.40;;;8.43;;
38379;SDS011;38377;47.418;18.882;2022-10-16T08:15:32;10.98;;;8.00;;
38379;SDS011;38377;47.418;18.882;2022-10-16T08:17:58;10.93;;;8.38;;
38379;SDS011;38377;47.418;18.882;2022-10-16T08:20:26;12.00;;;8.18;;
38379;SDS011;38377;47.418;18.882;2022-10-16T08:22:52;11.10;;;7.80;;
38379;SDS011;38377;47.418;18.882;2022-10-16T08:25:19;9.88;;;7.90;;
38379;SDS011;38377;47.418;18.882;2022-10-16T08:27:45;10.07;;;7.72;;
38379;SDS011;38377;47.418;18.882;2022-10-16T08:30:11;10.95;;;8.07;;
38379;SDS011;38377;47.418;18.882;2022-10-16T08:32:38;11.68;;;8.10;;
38379;SDS011;38377;47.418;18.882;2022-10-16T08:35:04;10.60;;;7.38;;
38379;SDS011;38377;47.418;18.882;2022-10-16T08:37:30;10.82;;;7.78;;
38379;SDS011;38377;47.418;18.882;2022-10-16T08:39:56;11.85;;;8.15;;
38379;SDS011;38377;47.418;18.882;2022-10-16T08:50:25;13.45;;;7.68;;
38379;SDS011;38377;47.418;18.882;2022-10-16T08:52:53;10.23;;;8.02;;
38379;SDS011;38377;47.418;18.882;2022-10-16T08:57:53;14.68;;;8.10;;
38379;SDS011;38377;47.418;18.882;2022-10-16T09:00:19;10.52;;;7.93;;
38379;SDS011;38377;47.418;18.882;2022-10-16T09:11:26;11.35;;;7.75;;
38379;SDS011;38377;47.418;18.882;2022-10-16T09:14:10;14.23;;;8.20;;
38379;SDS011;38377;47.418;18.882;2022-10-16T09:22:47;10.93;;;7.82;;
38379;SDS011;38377;47.418;18.882;2022-10-16T09:25:14;9.48;;;7.82;;
38379;SDS011;38377;47.418;18.882;2022-10-16T09:27:45;11.82;;;7.65;;
38379;SDS011;38377;47.418;18.882;2022-10-16T09:30:13;10.98;;;7.68;;
38379;SDS011;38377;47.418;18.882;2022-10-16T09:32:42;9.05;;;7.15;;
38379;SDS011;38377;47.418;18.882;2022-10-16T09:35:19;10.23;;;8.20;;
38379;SDS011;38377;47.418;18.882;2022-10-16T09:37:49;10.13;;;8.07;;
38379;SDS011;38377;47.418;18.882;2022-10-16T09:40:24;8.60;;;7.50;;
38379;SDS011;38377;47.418;18.882;2022-10-16T09:42:50;10.75;;;7.40;;
38379;SDS011;38377;47.418;18.882;2022-10-16T09:45:22;13.68;;;8.05;;
38379;SDS011;38377;47.418;18.882;2022-10-16T09:47:48;11.07;;;7.57;;
38379;SDS011;38377;47.418;18.882;2022-10-16T09:50:24;10.43;;;8.32;;
38379;SDS011;38377;47.418;18.882;2022-10-16T09:57:58;11.65;;;7.53;;
38379;SDS011;38377;47.418;18.882;2022-10-16T10:00:24;12.20;;;7.93;;
38379;SDS011;38377;47.418;18.882;2022-10-16T10:02:50;10.98;;;7.40;;
38379;SDS011;38377;47.418;18.882;2022-10-16T10:05:35;14.65;;;7.68;;
38379;SDS011;38377;47.418;18.882;2022-10-16T10:08:04;11.40;;;8.73;;
38379;SDS011;38377;47.418;18.882;2022-10-16T10:10:32;11.38;;;7.60;;
38379;SDS011;38377;47.418;18.882;2022-10-16T10:13:16;10.35;;;7.55;;
38379;SDS011;38377;47.418;18.882;2022-10-16T10:15:47;10.20;;;8.02;;
38379;SDS011;38377;47.418;18.882;2022-10-16T10:18:17;11.68;;;7.82;;
38379;SDS011;38377;47.418;18.882;2022-10-16T10:20:45;9.80;;;7.60;;
38379;SDS011;38377;47.418;18.882;2022-10-16T10:23:29;12.60;;;7.93;;
38379;SDS011;38377;47.418;18.882;2022-10-16T10:26:12;10.63;;;8.23;;
38379;SDS011;38377;47.418;18.882;2022-10-16T10:31:21;16.52;;;7.68;;
38379;SDS011;38377;47.418;18.882;2022-10-16T10:36:47;8.23;;;6.65;;
38379;SDS011;38377;47.418;18.882;2022-10-16T10:39:54;16.48;;;7.72;;
38379;SDS011;38377;47.418;18.882;2022-10-16T10:42:44;8.60;;;7.47;;
38379;SDS011;38377;47.418;18.882;2022-10-16T10:45:18;7.35;;;5.97;;
38379;SDS011;38377;47.418;18.882;2022-10-16T10:47:50;8.18;;;6.78;;
38379;SDS011;38377;47.418;18.882;2022-10-16T10:50:39;10.93;;;6.90;;
38379;SDS011;38377;47.418;18.882;2022-10-16T11:06:55;8.23;;;7.32;;
38379;SDS011;38377;47.418;18.882;2022-10-16T11:09:41;6.85;;;5.90;;
38379;SDS011;38377;47.418;18.882;2022-10-16T11:12:20;9.43;;;6.38;;
38379;SDS011;38377;47.418;18.882;2022-10-16T11:20:20;7.35;;;4.75;;
38379;SDS011;38377;47.418;18.882;2022-10-16T11:23:01;8.65;;;5.68;;
38379;SDS011;38377;47.418;18.882;2022-10-16T11:25:51;10.38;;;7.32;;
38379;SDS011;38377;47.418;18.882;2022-10-16T11:28:25;7.35;;;5.60;;
38379;SDS011;38377;47.418;18.882;2022-10-16T11:31:11;9.73;;;5.75;;
38379;SDS011;38377;47.418;18.882;2022-10-16T11:36:44;7.35;;;5.32;;
38379;SDS011;38377;47.418;18.882;2022-10-16T11:39:19;5.45;;;4.78;;
38379;SDS011;38377;47.418;18.882;2022-10-16T11:44:48;7.68;;;4.88;;
38379;SDS011;38377;47.418;18.882;2022-10-16T11:53:55;10.38;;;5.15;;
38379;SDS011;38377;47.418;18.882;2022-10-16T11:55:54;5.97;;;4.90;;
38379;SDS011;38377;47.418;18.882;2022-10-16T11:58:31;6.60;;;4.60;;
38379;SDS011;38377;47.418;18.882;2022-10-16T12:03:40;7.60;;;5.60;;
38379;SDS011;38377;47.418;18.882;2022-10-16T12:08:40;11.93;;;5.68;;
38379;SDS011;38377;47.418;18.882;2022-10-16T12:11:09;5.05;;;4.10;;
38379;SDS011;38377;47.418;18.882;2022-10-16T12:14:05;7.95;;;5.15;;
38379;SDS011;38377;47.418;18.882;2022-10-16T12:16:58;13.65;;;6.10;;
38379;SDS011;38377;47.418;18.882;2022-10-16T12:19:29;6.38;;;4.60;;
38379;SDS011;38377;47.418;18.882;2022-10-16T12:21:57;6.88;;;4.72;;
38379;SDS011;38377;47.418;18.882;2022-10-16T12:27:03;7.53;;;6.05;;
38379;SDS011;38377;47.418;18.882;2022-10-16T12:29:38;6.13;;;5.25;;
38379;SDS011;38377;47.418;18.882;2022-10-16T12:32:19;5.05;;;3.95;;
38379;SDS011;38377;47.418;18.882;2022-10-16T12:34:48;7.63;;;4.30;;
38379;SDS011;38377;47.418;18.882;2022-10-16T12:37:14;5.20;;;4.50;;
38379;SDS011;38377;47.418;18.882;2022-10-16T12:39:56;6.38;;;4.20;;
38379;SDS011;38377;47.418;18.882;2022-10-16T12:42:30;7.10;;;4.43;;
38379;SDS011;38377;47.418;18.882;2022-10-16T12:44:58;11.68;;;5.28;;
38379;SDS011;38377;47.418;18.882;2022-10-16T12:49:56;12.68;;;7.60;;
38379;SDS011;38377;47.418;18.882;2022-10-16T12:52:37;9.85;;;6.70;;
38379;SDS011;38377;47.418;18.882;2022-10-16T12:57:43;9.30;;;5.05;;
38379;SDS011;38377;47.418;18.882;2022-10-16T13:00:26;5.85;;;4.43;;
38379;SDS011;38377;47.418;18.882;2022-10-16T13:05:59;7.70;;;5.28;;
38379;SDS011;38377;47.418;18.882;2022-10-16T13:28:08;6.50;;;4.03;;
38379;SDS011;38377;47.418;18.882;2022-10-16T13:30:39;8.02;;;3.92;;
38379;SDS011;38377;47.418;18.882;2022-10-16T13:33:13;6.75;;;4.20;;
38379;SDS011;38377;47.418;18.882;2022-10-16T13:35:52;8.05;;;4.35;;
38379;SDS011;38377;47.418;18.882;2022-10-16T13:38:20;8.88;;;5.38;;
38379;SDS011;38377;47.418;18.882;2022-10-16T13:40:48;9.50;;;4.55;;
38379;SDS011;38377;47.418;18.882;2022-10-16T13:43:13;6.90;;;4.22;;
38379;SDS011;38377;47.418;18.882;2022-10-16T13:45:40;5.65;;;3.67;;
38379;SDS011;38377;47.418;18.882;2022-10-16T13:48:09;6.50;;;4.93;;
38379;SDS011;38377;47.418;18.882;2022-10-16T13:50:37;9.27;;;5.40;;
38379;SDS011;38377;47.418;18.882;2022-10-16T13:53:05;6.45;;;4.68;;
38379;SDS011;38377;47.418;18.882;2022-10-16T13:55:37;6.22;;;4.55;;
38379;SDS011;38377;47.418;18.882;2022-10-16T13:58:13;5.60;;;4.20;;
38379;SDS011;38377;47.418;18.882;2022-10-16T14:00:40;6.60;;;4.50;;
38379;SDS011;38377;47.418;18.882;2022-10-16T14:03:18;12.25;;;7.57;;
38379;SDS011;38377;47.418;18.882;2022-10-16T14:05:49;7.88;;;5.82;;
38379;SDS011;38377;47.418;18.882;2022-10-16T14:08:17;7.57;;;5.03;;
38379;SDS011;38377;47.418;18.882;2022-10-16T14:10:46;7.22;;;4.38;;
38379;SDS011;38377;47.418;18.882;2022-10-16T14:15:45;5.72;;;4.47;;
38379;SDS011;38377;47.418;18.882;2022-10-16T14:18:16;6.72;;;4.53;;
38379;SDS011;38377;47.418;18.882;2022-10-16T14:20:46;8.90;;;4.32;;
38379;SDS011;38377;47.418;18.882;2022-10-16T14:25:53;7.63;;;4.05;;
38379;SDS011;38377;47.418;18.882;2022-10-16T14:28:19;6.10;;;4.10;;
38379;SDS011;38377;47.418;18.882;2022-10-16T14:30:51;7.88;;;4.18;;
38379;SDS011;38377;47.418;18.882;2022-10-16T14:36:14;6.65;;;4.28;;
38379;SDS011;38377;47.418;18.882;2022-10-16T14:38:49;6.75;;;4.88;;
38379;SDS011;38377;47.418;18.882;2022-10-16T14:41:19;6.88;;;4.35;;
38379;SDS011;38377;47.418;18.882;2022-10-16T14:43:49;5.47;;;4.25;;
38379;SDS011;38377;47.418;18.882;2022-10-16T14:46:20;6.18;;;4.93;;
38379;SDS011;38377;47.418;18.882;2022-10-16T14:48:52;6.68;;;4.15;;
38379;SDS011;38377;47.418;18.882;2022-10-16T14:51:26;8.27;;;4.80;;
38379;SDS011;38377;47.418;18.882;2022-10-16T14:53:52;9.05;;;4.97;;
38379;SDS011;38377;47.418;18.882;2022-10-16T14:56:18;6.63;;;4.82;;
38379;SDS011;38377;47.418;18.882;2022-10-16T14:58:46;6.43;;;4.95;;
38379;SDS011;38377;47.418;18.882;2022-10-16T15:01:12;6.15;;;4.38;;
38379;SDS011;38377;47.418;18.882;2022-10-16T15:03:38;4.72;;;4.28;;
38379;SDS011;38377;47.418;18.882;2022-10-16T15:06:08;8.52;;;4.97;;
38379;SDS011;38377;47.418;18.882;2022-10-16T15:08:36;5.68;;;4.32;;
38379;SDS011;38377;47.418;18.882;2022-10-16T15:11:02;7.00;;;4.57;;
38379;SDS011;38377;47.418;18.882;2022-10-16T15:13:28;8.40;;;4.40;;
38379;SDS011;38377;47.418;18.882;2022-10-16T15:15:53;8.15;;;5.15;;
38379;SDS011;38377;47.418;18.882;2022-10-16T15:18:19;8.73;;;6.35;;
38379;SDS011;38377;47.418;18.882;2022-10-16T15:20:48;8.07;;;4.43;;
38379;SDS011;38377;47.418;18.882;2022-10-16T15:23:18;10.18;;;3.95;;
38379;SDS011;38377;47.418;18.882;2022-10-16T15:25:47;14.95;;;5.03;;
38379;SDS011;38377;47.418;18.882;2022-10-16T15:28:15;10.18;;;5.35;;
38379;SDS011;38377;47.418;18.882;2022-10-16T15:30:41;7.28;;;5.25;;
38379;SDS011;38377;47.418;18.882;2022-10-16T15:33:17;6.05;;;4.30;;
38379;SDS011;38377;47.418;18.882;2022-10-16T15:35:47;8.35;;;5.00;;
38379;SDS011;38377;47.418;18.882;2022-10-16T15:38:14;7.03;;;4.75;;
38379;SDS011;38377;47.418;18.882;2022-10-16T15:40:41;11.18;;;5.85;;
38379;SDS011;38377;47.418;18.882;2022-10-16T15:43:07;8.90;;;5.80;;
38379;SDS011;38377;47.418;18.882;2022-10-16T15:45:33;11.98;;;5.82;;
38379;SDS011;38377;47.418;18.882;2022-10-16T15:48:00;11.82;;;6.35;;
38379;SDS011;38377;47.418;18.882;2022-10-16T15:50:26;11.13;;;6.70;;
38379;SDS011;38377;47.418;18.882;2022-10-16T15:52:52;13.82;;;7.45;;
38379;SDS011;38377;47.418;18.882;2022-10-16T15:55:17;12.88;;;7.70;;
38379;SDS011;38377;47.418;18.882;2022-10-16T15:57:44;16.20;;;8.00;;
38379;SDS011;38377;47.418;18.882;2022-10-16T16:00:14;14.75;;;8.93;;
38379;SDS011;38377;47.418;18.882;2022-10-16T16:02:43;13.32;;;8.40;;
38379;SDS011;38377;47.418;18.882;2022-10-16T16:05:14;17.20;;;10.27;;
38379;SDS011;38377;47.418;18.882;2022-10-16T16:07:40;19.00;;;10.73;;
38379;SDS011;38377;47.418;18.882;2022-10-16T16:10:07;14.65;;;9.85;;
38379;SDS011;38377;47.418;18.882;2022-10-16T16:12:34;18.88;;;9.07;;
38379;SDS011;38377;47.418;18.882;2022-10-16T16:15:00;13.85;;;9.20;;
38379;SDS011;38377;47.418;18.882;2022-10-16T16:17:26;14.35;;;9.35;;
38379;SDS011;38377;47.418;18.882;2022-10-16T16:19:52;18.27;;;9.90;;
38379;SDS011;38377;47.418;18.882;2022-10-16T16:22:17;11.88;;;8.30;;
38379;SDS011;38377;47.418;18.882;2022-10-16T16:24:43;12.73;;;8.50;;
38379;SDS011;38377;47.418;18.882;2022-10-16T16:27:09;13.45;;;8.65;;
38379;SDS011;38377;47.418;18.882;2022-10-16T16:29:35;19.48;;;8.55;;
38379;SDS011;38377;47.418;18.882;2022-10-16T16:32:00;21.83;;;10.30;;
38379;SDS011;38377;47.418;18.882;2022-10-16T16:34:27;22.40;;;9.80;;
38379;SDS011;38377;47.418;18.882;2022-10-16T16:36:53;20.48;;;11.27;;
38379;SDS011;38377;47.418;18.882;2022-10-16T16:39:22;31.48;;;14.80;;
38379;SDS011;38377;47.418;18.882;2022-10-16T16:41:48;24.65;;;15.48;;
38379;SDS011;38377;47.418;18.882;2022-10-16T16:44:14;22.42;;;13.95;;
38379;SDS011;38377;47.418;18.882;2022-10-16T16:46:41;23.23;;;15.13;;